Time;durP1;ratioP1;P1;durP2;ratioP2;P2;SDS_P1;SDS_P2;PMS_P1;PMS_P2;Temp;Humidity;BMP_temperature;BMP_pressure;BME280_temperature;BME280_humidity;BME280_pressure;Samples;Min_cycle;Max_cycle;Signal;HPM_P1;HPM_P2
2022/06/22 00:01:51;;;;;;;0.40;0.40;;;15.20;99.90;;;;;;5092937;28;20239;-67
2022/06/22 00:04:46;;;;;;;0.40;0.40;;;15.10;99.90;;;;;;5091892;28;20200;-69
2022/06/22 00:07:39;;;;;;;0.43;0.43;;;15.10;99.90;;;;;;5092103;28;20200;-68
2022/06/22 00:10:33;;;;;;;0.40;0.40;;;15.10;99.90;;;;;;5091707;28;20561;-68
2022/06/22 00:13:26;;;;;;;0.40;0.40;;;15.10;99.90;;;;;;5092122;28;20219;-68
2022/06/22 00:16:19;;;;;;;0.50;0.50;;;15.00;99.90;;;;;;5092850;28;20691;-69
2022/06/22 00:19:29;;;;;;;0.50;0.50;;;15.00;99.90;;;;;;5091961;28;20195;-67
2022/06/22 00:22:20;;;;;;;0.50;0.50;;;14.90;99.90;;;;;;5091954;28;20227;-69
2022/06/22 00:25:13;;;;;;;0.40;0.40;;;14.90;99.90;;;;;;5094596;28;20207;-70
2022/06/22 00:28:28;;;;;;;0.40;0.40;;;14.80;99.90;;;;;;5096098;28;20203;-68
2022/06/22 00:31:23;;;;;;;0.40;0.40;;;14.80;99.90;;;;;;5095290;28;20246;-69
2022/06/22 00:34:16;;;;;;;0.40;0.40;;;14.80;99.90;;;;;;5096796;28;20227;-68
2022/06/22 00:37:07;;;;;;;0.50;0.50;;;14.80;99.90;;;;;;5095850;28;20196;-67
2022/06/22 00:40:00;;;;;;;0.40;0.40;;;14.70;99.90;;;;;;5095382;28;20414;-68
2022/06/22 00:42:51;;;;;;;0.40;0.40;;;14.70;99.90;;;;;;5095743;28;20224;-69
2022/06/22 00:45:41;;;;;;;0.40;0.40;;;14.70;99.90;;;;;;5095359;28;20858;-69
2022/06/22 00:48:32;;;;;;;0.40;0.40;;;14.60;99.90;;;;;;5096135;28;20204;-67
2022/06/22 00:51:25;;;;;;;0.40;0.40;;;14.70;99.90;;;;;;5095170;28;20212;-68
2022/06/22 00:54:19;;;;;;;0.40;0.40;;;14.60;99.90;;;;;;5095594;28;20215;-69
2022/06/22 00:57:11;;;;;;;0.40;0.40;;;14.60;99.90;;;;;;5094242;28;20207;-70
2022/06/22 01:00:04;;;;;;;0.40;0.40;;;14.60;99.90;;;;;;5095063;28;20211;-69
2022/06/22 01:02:57;;;;;;;0.50;0.50;;;14.50;99.90;;;;;;5095439;28;21011;-69
2022/06/22 01:05:52;;;;;;;0.40;0.40;;;14.50;99.90;;;;;;5095527;28;20425;-68
2022/06/22 01:08:46;;;;;;;0.40;0.40;;;14.50;99.90;;;;;;5095023;28;20628;-68
2022/06/22 01:14:50;;;;;;;0.40;0.40;;;14.40;99.90;;;;;;5095169;28;20429;-69
2022/06/22 01:17:56;;;;;;;0.40;0.40;;;14.30;99.90;;;;;;5094615;28;20585;-68
2022/06/22 01:20:55;;;;;;;4.97;4.00;;;14.30;99.90;;;;;;5094784;28;20225;-67
2022/06/22 01:24:13;;;;;;;0.50;0.50;;;14.30;99.90;;;;;;5094294;28;20223;-68
2022/06/22 01:27:24;;;;;;;0.40;0.40;;;14.20;99.90;;;;;;5094393;28;20418;-68
2022/06/22 01:30:22;;;;;;;0.40;0.40;;;14.20;99.90;;;;;;5094026;28;20430;-69
2022/06/22 01:33:16;;;;;;;0.40;0.40;;;14.20;99.90;;;;;;5094857;28;20596;-69
2022/06/22 01:36:09;;;;;;;0.40;0.40;;;14.10;99.90;;;;;;5093627;28;20218;-68
2022/06/22 01:38:57;;;;;;;0.40;0.40;;;14.20;99.90;;;;;;5093581;28;20196;-69
2022/06/22 01:41:51;;;;;;;0.40;0.40;;;14.10;99.90;;;;;;5094039;28;20216;-67
2022/06/22 01:44:46;;;;;;;0.40;0.40;;;14.00;99.90;;;;;;5093896;28;20208;-69
2022/06/22 01:47:43;;;;;;;0.50;0.50;;;14.00;99.90;;;;;;5094589;28;20433;-68
2022/06/22 01:50:36;;;;;;;0.50;0.50;;;14.00;99.90;;;;;;5093474;28;20511;-68
2022/06/22 01:53:30;;;;;;;0.40;0.40;;;13.90;99.90;;;;;;5093584;28;20227;-69
2022/06/22 01:56:29;;;;;;;0.50;0.50;;;14.00;99.90;;;;;;5093119;28;20443;-67
2022/06/22 01:59:23;;;;;;;0.60;0.60;;;13.90;99.90;;;;;;5075755;28;20408;-69
2022/06/22 02:02:17;;;;;;;0.50;0.50;;;13.90;99.90;;;;;;5074740;28;20439;-69
2022/06/22 02:05:13;;;;;;;0.50;0.50;;;13.90;99.90;;;;;;5073950;28;20428;-67
2022/06/22 02:08:08;;;;;;;0.50;0.50;;;13.90;99.90;;;;;;5074452;28;20485;-68
2022/06/22 02:11:03;;;;;;;0.40;0.40;;;13.90;99.90;;;;;;5073637;28;20462;-69
2022/06/22 02:13:57;;;;;;;0.50;0.50;;;13.80;99.90;;;;;;5074092;28;20977;-68
2022/06/22 02:16:51;;;;;;;0.40;0.40;;;13.80;99.90;;;;;;5073162;28;20427;-70
2022/06/22 02:19:42;;;;;;;0.50;0.50;;;13.80;99.90;;;;;;5073652;28;20838;-69
2022/06/22 02:22:30;;;;;;;0.50;0.50;;;13.80;99.90;;;;;;5073747;28;20451;-68
2022/06/22 02:25:20;;;;;;;0.40;0.40;;;13.70;99.90;;;;;;5073549;28;20207;-68
2022/06/22 02:28:08;;;;;;;0.50;0.50;;;13.70;99.90;;;;;;5073448;28;20519;-69
2022/06/22 02:30:57;;;;;;;0.40;0.40;;;13.70;99.90;;;;;;5072596;28;20420;-68
2022/06/22 02:33:49;;;;;;;0.40;0.40;;;13.60;99.90;;;;;;5073400;28;20430;-69
2022/06/22 02:36:43;;;;;;;0.40;0.40;;;13.60;99.90;;;;;;5073283;28;20842;-69
2022/06/22 02:39:34;;;;;;;0.50;0.50;;;13.60;99.90;;;;;;5072341;28;20476;-69
2022/06/22 02:45:29;;;;;;;0.50;0.50;;;13.50;99.90;;;;;;5072917;28;20696;-68
2022/06/22 02:48:32;;;;;;;0.50;0.50;;;13.50;99.90;;;;;;5071875;28;20447;-68
2022/06/22 02:51:26;;;;;;;0.40;0.40;;;13.50;99.90;;;;;;5071097;28;20461;-71
2022/06/22 02:54:24;;;;;;;0.50;0.50;;;13.50;99.90;;;;;;5073650;28;20224;-67
2022/06/22 02:57:22;;;;;;;0.40;0.40;;;13.50;99.90;;;;;;5072757;28;20515;-69
2022/06/22 03:00:12;;;;;;;0.40;0.40;;;13.50;99.90;;;;;;5072903;28;20457;-68
2022/06/22 03:03:07;;;;;;;0.40;0.40;;;13.50;99.90;;;;;;5072560;28;20442;-69
2022/06/22 03:05:57;;;;;;;0.40;0.40;;;13.50;99.90;;;;;;5073178;28;20426;-67
2022/06/22 03:08:46;;;;;;;0.40;0.40;;;13.50;99.90;;;;;;5073339;28;20427;-68
2022/06/22 03:11:44;;;;;;;0.50;0.50;;;13.50;99.90;;;;;;5072941;28;21003;-68
2022/06/22 03:14:36;;;;;;;0.50;0.50;;;13.50;99.90;;;;;;5073226;28;20512;-69
2022/06/22 03:17:29;;;;;;;0.40;0.40;;;13.50;99.90;;;;;;5071352;28;20855;-69
2022/06/22 03:20:22;;;;;;;0.40;0.40;;;13.50;99.90;;;;;;5072499;28;20465;-68
2022/06/22 03:23:18;;;;;;;0.40;0.40;;;13.50;99.90;;;;;;5071809;28;20454;-68
2022/06/22 03:26:13;;;;;;;0.40;0.40;;;13.40;99.90;;;;;;5072258;28;20892;-73
2022/06/22 03:29:08;;;;;;;0.50;0.50;;;13.40;99.90;;;;;;5071432;28;20423;-69
2022/06/22 03:32:01;;;;;;;0.40;0.40;;;13.50;99.90;;;;;;5071959;28;21028;-69
2022/06/22 03:34:52;;;;;;;0.50;0.50;;;13.50;99.90;;;;;;5072111;28;20430;-69
2022/06/22 03:37:45;;;;;;;0.43;0.43;;;13.50;99.90;;;;;;5072298;28;20420;-67
2022/06/22 03:40:37;;;;;;;0.40;0.40;;;13.50;99.90;;;;;;5072379;28;20424;-68
2022/06/22 03:43:29;;;;;;;0.50;0.50;;;13.50;99.90;;;;;;5072135;28;20224;-69
2022/06/22 03:46:26;;;;;;;0.50;0.50;;;13.60;99.90;;;;;;5072722;28;20213;-70
2022/06/22 03:49:18;;;;;;;0.50;0.50;;;13.60;99.90;;;;;;5072444;28;20431;-67
2022/06/22 03:52:12;;;;;;;0.40;0.40;;;13.60;99.90;;;;;;5072097;28;20473;-69
2022/06/22 03:55:05;;;;;;;0.50;0.50;;;13.60;99.90;;;;;;5073570;28;20425;-68
2022/06/22 03:57:56;;;;;;;0.40;0.40;;;13.70;99.90;;;;;;5075547;28;20787;-69
2022/06/22 04:00:46;;;;;;;0.40;0.40;;;13.70;99.90;;;;;;5071640;28;20201;-69
2022/06/22 04:03:36;;;;;;;0.40;0.40;;;13.80;99.90;;;;;;5070604;28;20419;-68
2022/06/22 04:06:29;;;;;;;0.40;0.40;;;13.80;99.90;;;;;;5072488;28;20427;-69
2022/06/22 04:09:20;;;;;;;0.40;0.40;;;13.90;99.90;;;;;;5071095;28;20448;-67
2022/06/22 04:12:13;;;;;;;0.50;0.50;;;13.90;99.90;;;;;;5071381;28;20675;-69
2022/06/22 04:15:13;;;;;;;0.40;0.40;;;14.00;99.90;;;;;;5071873;28;20416;-68
2022/06/22 04:18:08;;;;;;;0.40;0.40;;;14.00;99.90;;;;;;5065755;28;20574;-67
2022/06/22 04:21:01;;;;;;;0.40;0.40;;;14.10;99.90;;;;;;5071919;28;20833;-69
2022/06/22 04:23:53;;;;;;;0.40;0.40;;;14.10;99.90;;;;;;5071978;28;20430;-67
2022/06/22 04:26:45;;;;;;;0.50;0.50;;;14.20;99.90;;;;;;5071968;28;20431;-67
2022/06/22 04:29:38;;;;;;;0.50;0.50;;;14.30;99.90;;;;;;5072530;28;20201;-68
2022/06/22 04:32:31;;;;;;;0.40;0.40;;;14.30;99.90;;;;;;5072532;28;20536;-69
2022/06/22 04:35:39;;;;;;;0.40;0.40;;;14.40;99.90;;;;;;5072709;28;20485;-67
2022/06/22 04:38:35;;;;;;;0.40;0.40;;;14.50;99.90;;;;;;5072186;28;20443;-67
2022/06/22 04:41:28;;;;;;;0.40;0.40;;;14.60;99.90;;;;;;5072726;28;20516;-68
2022/06/22 04:44:20;;;;;;;0.40;0.40;;;14.70;99.90;;;;;;5072341;28;20200;-68
2022/06/22 04:47:15;;;;;;;0.40;0.40;;;14.70;99.90;;;;;;5072543;28;20201;-70
2022/06/22 04:50:08;;;;;;;0.40;0.40;;;14.80;99.90;;;;;;5071301;28;20681;-69
2022/06/22 04:53:00;;;;;;;0.40;0.40;;;14.90;99.90;;;;;;5071449;28;20254;-70
2022/06/22 04:55:51;;;;;;;0.50;0.50;;;15.10;99.90;;;;;;5071431;28;20201;-69
2022/06/22 04:58:43;;;;;;;0.50;0.50;;;15.20;99.90;;;;;;5071577;28;20201;-70
2022/06/22 05:01:34;;;;;;;0.40;0.40;;;15.30;99.90;;;;;;5071982;28;20234;-68
2022/06/22 05:04:27;;;;;;;0.40;0.40;;;15.40;99.90;;;;;;5071515;28;20200;-68
2022/06/22 05:07:34;;;;;;;0.47;0.47;;;15.50;99.90;;;;;;5071600;28;20197;-69
2022/06/22 05:10:38;;;;;;;0.47;0.47;;;15.60;99.90;;;;;;5071230;28;20205;-67
2022/06/22 05:13:31;;;;;;;0.40;0.40;;;15.70;99.90;;;;;;5075264;28;20697;-68
2022/06/22 05:16:23;;;;;;;0.50;0.50;;;15.80;99.90;;;;;;5075630;28;20212;-71
2022/06/22 05:19:14;;;;;;;0.50;0.50;;;15.90;99.90;;;;;;5075260;28;20205;-69
2022/06/22 05:22:09;;;;;;;0.40;0.40;;;16.00;99.90;;;;;;5074760;28;20697;-67
2022/06/22 05:25:00;;;;;;;0.40;0.40;;;16.10;99.90;;;;;;5074860;28;20698;-69
2022/06/22 05:27:57;;;;;;;0.47;0.47;;;16.20;99.90;;;;;;5074518;28;20257;-67
2022/06/22 05:30:51;;;;;;;0.50;0.50;;;16.30;99.90;;;;;;5074404;28;20236;-68
2022/06/22 05:33:46;;;;;;;0.40;0.40;;;16.40;99.90;;;;;;5074543;28;20248;-69
2022/06/22 05:36:40;;;;;;;0.50;0.50;;;16.50;99.90;;;;;;5073529;28;20664;-72
2022/06/22 05:39:28;;;;;;;0.50;0.50;;;16.60;99.90;;;;;;5074196;28;20621;-68
2022/06/22 05:42:18;;;;;;;0.45;0.45;;;16.70;99.90;;;;;;5073538;28;20295;-71
2022/06/22 05:45:15;;;;;;;0.40;0.40;;;16.90;99.90;;;;;;5073169;28;20228;-72
2022/06/22 05:48:06;;;;;;;0.40;0.40;;;17.10;99.90;;;;;;5073678;28;20226;-71
2022/06/22 05:50:59;;;;;;;0.50;0.50;;;17.20;99.90;;;;;;5073944;28;20803;-72
2022/06/22 05:53:52;;;;;;;0.50;0.50;;;17.30;99.90;;;;;;5080350;28;20349;-73
2022/06/22 05:56:44;;;;;;;0.50;0.50;;;17.40;99.90;;;;;;5076989;28;20209;-68
2022/06/22 05:59:40;;;;;;;0.40;0.40;;;17.60;99.90;;;;;;5073432;28;20760;-69
2022/06/22 06:02:34;;;;;;;0.40;0.40;;;17.70;99.90;;;;;;5082508;28;20219;-71
2022/06/22 06:05:29;;;;;;;0.50;0.50;;;17.90;99.90;;;;;;5093937;28;20265;-69
2022/06/22 06:08:21;;;;;;;0.50;0.50;;;18.00;99.90;;;;;;5093487;28;20203;-69
2022/06/22 06:11:17;;;;;;;0.47;0.47;;;18.10;99.90;;;;;;5092945;28;21028;-70
2022/06/22 06:14:10;;;;;;;0.50;0.50;;;18.20;99.90;;;;;;5072821;28;20735;-69
2022/06/22 06:17:04;;;;;;;0.40;0.40;;;18.30;99.90;;;;;;5073412;28;20207;-70
2022/06/22 06:19:55;;;;;;;0.40;0.40;;;18.40;99.90;;;;;;5072828;28;20673;-69
2022/06/22 06:22:44;;;;;;;0.47;0.47;;;18.40;99.90;;;;;;5072263;28;20229;-69
2022/06/22 06:29:11;;;;;;;0.40;0.40;;;18.50;99.90;;;;;;5092046;28;20277;-70
2022/06/22 06:32:06;;;;;;;0.50;0.50;;;18.60;99.90;;;;;;5091580;28;20255;-71
2022/06/22 06:34:56;;;;;;;0.40;0.40;;;18.70;99.90;;;;;;5092087;28;20219;-70
2022/06/22 06:37:57;;;;;;;0.43;0.43;;;18.70;99.90;;;;;;5092950;28;20695;-71
2022/06/22 06:40:50;;;;;;;0.40;0.40;;;18.80;99.90;;;;;;5083321;28;20199;-69
2022/06/22 06:43:43;;;;;;;0.50;0.50;;;18.90;99.90;;;;;;5072199;28;20262;-69
2022/06/22 06:46:36;;;;;;;0.40;0.40;;;19.00;99.90;;;;;;5088830;28;20192;-69
2022/06/22 06:49:29;;;;;;;0.50;0.50;;;19.10;99.90;;;;;;5082431;28;20230;-68
2022/06/22 06:52:26;;;;;;;0.40;0.40;;;19.20;99.90;;;;;;5072797;28;20228;-68
2022/06/22 06:55:25;;;;;;;0.40;0.40;;;19.30;99.90;;;;;;5071797;28;20212;-71
2022/06/22 06:58:19;;;;;;;0.40;0.40;;;19.40;99.90;;;;;;5070904;28;20197;-67
2022/06/22 07:01:15;;;;;;;0.40;0.40;;;19.50;99.90;;;;;;5071101;28;20250;-68
2022/06/22 07:04:08;;;;;;;1.27;1.27;;;19.60;99.90;;;;;;5071708;28;20201;-70
2022/06/22 07:07:05;;;;;;;0.40;0.40;;;19.70;99.90;;;;;;5071387;28;20199;-69
2022/06/22 07:09:57;;;;;;;0.52;0.52;;;19.80;99.90;;;;;;5071084;28;20303;-69
2022/06/22 07:12:53;;;;;;;0.40;0.40;;;19.80;99.90;;;;;;5071866;28;20295;-69
2022/06/22 07:15:47;;;;;;;0.40;0.40;;;20.00;99.90;;;;;;5072336;28;20270;-68
2022/06/22 07:18:39;;;;;;;0.40;0.40;;;20.10;99.90;;;;;;5071881;28;20212;-70
2022/06/22 07:21:34;;;;;;;0.40;0.40;;;20.20;99.90;;;;;;5070878;28;20220;-68
2022/06/22 07:24:29;;;;;;;0.50;0.50;;;20.30;99.90;;;;;;5071126;28;20219;-68
2022/06/22 07:27:24;;;;;;;0.40;0.40;;;20.30;99.90;;;;;;5071719;28;20200;-69
2022/06/22 07:30:18;;;;;;;0.50;0.50;;;20.40;99.90;;;;;;5071697;28;20232;-70
2022/06/22 07:33:12;;;;;;;0.40;0.40;;;20.40;99.90;;;;;;5071400;28;20434;-69
2022/06/22 07:36:04;;;;;;;0.40;0.40;;;20.50;99.90;;;;;;5070861;28;20221;-68
2022/06/22 07:38:57;;;;;;;0.40;0.40;;;20.70;99.90;;;;;;5070857;28;20208;-70
2022/06/22 07:41:46;;;;;;;0.60;0.57;;;20.80;99.90;;;;;;5082916;28;20312;-68
2022/06/22 07:44:35;;;;;;;0.82;0.82;;;20.90;99.90;;;;;;5086140;28;20288;-70
2022/06/22 07:47:33;;;;;;;0.40;0.40;;;20.90;99.90;;;;;;5091356;28;20573;-69
2022/06/22 07:50:27;;;;;;;0.40;0.40;;;21.00;99.90;;;;;;5085183;28;20604;-70
2022/06/22 07:53:20;;;;;;;0.40;0.40;;;21.00;99.90;;;;;;5096831;28;20238;-68
2022/06/22 07:56:15;;;;;;;0.77;0.77;;;21.10;99.90;;;;;;5094663;28;20203;-68
2022/06/22 07:59:08;;;;;;;0.40;0.40;;;21.20;99.90;;;;;;5091226;28;20261;-68
2022/06/22 08:02:02;;;;;;;0.40;0.40;;;21.30;99.90;;;;;;5084302;28;20231;-70
2022/06/22 08:04:54;;;;;;;0.40;0.40;;;21.30;99.90;;;;;;5080767;28;20719;-69
2022/06/22 08:07:54;;;;;;;0.43;0.43;;;21.40;99.30;;;;;;5070915;28;20201;-70
2022/06/22 08:10:47;;;;;;;0.40;0.40;;;21.40;99.90;;;;;;5069372;28;20204;-69
2022/06/22 08:13:40;;;;;;;0.40;0.40;;;21.40;99.30;;;;;;5069730;28;20205;-69
2022/06/22 08:16:33;;;;;;;0.40;0.40;;;21.30;99.10;;;;;;5070231;28;20256;-69
2022/06/22 08:19:21;;;;;;;0.50;0.50;;;21.40;99.50;;;;;;5088279;28;20246;-68
2022/06/22 08:22:13;;;;;;;0.50;0.50;;;21.30;98.40;;;;;;5080489;28;20227;-68
2022/06/22 08:25:04;;;;;;;0.88;0.88;;;21.40;98.60;;;;;;5090563;28;20575;-69
2022/06/22 08:27:53;;;;;;;0.40;0.40;;;21.40;99.30;;;;;;5090533;28;20242;-69
2022/06/22 08:30:42;;;;;;;0.40;0.40;;;21.50;99.30;;;;;;5090752;28;20207;-68
2022/06/22 08:33:35;;;;;;;1.48;1.35;;;21.60;98.00;;;;;;5091120;28;20200;-70
2022/06/22 08:36:31;;;;;;;0.40;0.40;;;21.60;97.10;;;;;;5090687;28;20680;-68
2022/06/22 08:39:24;;;;;;;0.50;0.50;;;21.70;96.60;;;;;;5078474;28;20199;-68
2022/06/22 08:42:24;;;;;;;0.40;0.40;;;21.70;96.40;;;;;;5076121;28;20266;-68
2022/06/22 08:45:29;;;;;;;0.40;0.40;;;21.80;97.10;;;;;;5090867;28;20252;-68
2022/06/22 08:48:46;;;;;;;0.40;0.40;;;21.80;97.40;;;;;;5095565;28;20687;-68
2022/06/22 08:51:58;;;;;;;0.40;0.40;;;21.80;97.70;;;;;;5093791;28;20331;-69
2022/06/22 08:55:08;;;;;;;0.40;0.40;;;21.90;97.30;;;;;;5095126;28;20346;-69
2022/06/22 08:58:11;;;;;;;0.40;0.40;;;21.90;97.40;;;;;;5088814;28;20223;-70
2022/06/22 09:01:26;;;;;;;0.40;0.40;;;22.00;97.10;;;;;;5081277;28;20208;-68
2022/06/22 09:04:42;;;;;;;0.40;0.40;;;22.00;97.50;;;;;;5096086;28;20192;-69
2022/06/22 09:07:55;;;;;;;0.40;0.40;;;22.10;96.70;;;;;;5114041;28;20196;-69
2022/06/22 09:10:58;;;;;;;0.40;0.40;;;22.10;97.10;;;;;;5114495;28;20199;-68
2022/06/22 09:14:04;;;;;;;0.40;0.40;;;22.20;96.70;;;;;;5083806;28;20293;-69
2022/06/22 09:17:23;;;;;;;0.40;0.40;;;22.30;96.20;;;;;;5082296;28;20200;-69
2022/06/22 09:20:40;;;;;;;0.50;0.50;;;22.30;94.70;;;;;;5088277;28;20203;-69
2022/06/22 09:23:33;;;;;;;0.40;0.40;;;22.30;91.90;;;;;;5084894;28;20218;-67
2022/06/22 09:26:35;;;;;;;0.40;0.40;;;22.40;91.60;;;;;;5081668;28;20697;-70
2022/06/22 09:29:39;;;;;;;4.43;1.23;;;22.50;91.00;;;;;;5071517;28;20902;-69
2022/06/22 09:32:41;;;;;;;2.83;2.60;;;22.50;86.50;;;;;;5073008;28;20227;-70
2022/06/22 09:35:52;;;;;;;0.60;0.60;;;22.60;85.00;;;;;;5087129;28;20269;-70
2022/06/22 09:39:08;;;;;;;0.40;0.40;;;22.60;83.10;;;;;;5082671;28;20315;-68
2022/06/22 09:42:14;;;;;;;0.40;0.40;;;22.60;85.70;;;;;;5073849;28;20216;-68
2022/06/22 09:45:41;;;;;;;0.50;0.50;;;22.70;85.50;;;;;;5083390;28;20688;-67
2022/06/22 09:49:06;;;;;;;0.40;0.40;;;22.80;85.80;;;;;;5092925;28;20200;-67
2022/06/22 09:52:16;;;;;;;0.50;0.50;;;22.90;84.40;;;;;;5065014;28;20561;-69
2022/06/22 09:59:27;;;;;;;0.50;0.50;;;22.90;84.90;;;;;;5086619;28;20199;-69
2022/06/22 10:02:39;;;;;;;0.50;0.50;;;23.00;86.90;;;;;;5071275;28;20225;-68
2022/06/22 10:05:59;;;;;;;0.40;0.40;;;23.10;85.10;;;;;;5074764;28;20688;-69
2022/06/22 10:09:07;;;;;;;0.40;0.40;;;23.30;84.70;;;;;;5086412;28;20568;-69
2022/06/22 10:12:03;;;;;;;0.40;0.40;;;23.30;83.00;;;;;;5082924;28;20227;-68
2022/06/22 10:15:21;;;;;;;0.40;0.40;;;23.30;81.20;;;;;;5083518;28;20559;-70
2022/06/22 10:18:28;;;;;;;0.40;0.40;;;23.30;81.00;;;;;;5082938;28;20262;-68
2022/06/22 10:21:25;;;;;;;0.50;0.50;;;23.30;80.00;;;;;;5077931;28;20237;-68
2022/06/22 10:24:39;;;;;;;0.40;0.40;;;23.40;80.50;;;;;;5079585;28;20203;-68
2022/06/22 10:27:48;;;;;;;0.40;0.40;;;23.40;83.10;;;;;;5084569;28;20197;-67
2022/06/22 10:30:49;;;;;;;0.40;0.40;;;23.50;83.70;;;;;;5073870;28;20657;-68
2022/06/22 10:34:11;;;;;;;0.40;0.40;;;23.50;82.20;;;;;;5081746;28;20197;-67
2022/06/22 10:37:29;;;;;;;0.40;0.40;;;23.60;81.10;;;;;;5070914;28;20208;-69
2022/06/22 10:47:24;;;;;;;0.40;0.40;;;23.70;78.80;;;;;;5086309;28;20665;-69
2022/06/22 10:50:27;;;;;;;0.45;0.45;;;23.70;80.40;;;;;;5079434;28;20262;-68
2022/06/22 10:53:53;;;;;;;0.40;0.40;;;23.70;78.30;;;;;;5085183;28;20228;-70
2022/06/22 10:57:05;;;;;;;0.40;0.40;;;23.70;76.70;;;;;;5080099;28;20855;-69
2022/06/22 11:00:20;;;;;;;0.60;0.60;;;23.80;75.30;;;;;;5071048;28;20346;-70
2022/06/22 11:03:42;;;;;;;0.60;0.50;;;23.90;76.10;;;;;;5065547;28;20278;-69
2022/06/22 11:06:54;;;;;;;0.40;0.40;;;23.90;75.20;;;;;;5078983;28;20188;-67
2022/06/22 11:10:03;;;;;;;0.40;0.40;;;23.90;74.40;;;;;;5082595;28;20216;-67
2022/06/22 11:13:06;;;;;;;0.40;0.40;;;23.90;74.30;;;;;;5077052;28;20215;-68
2022/06/22 11:16:25;;;;;;;0.40;0.40;;;24.00;75.70;;;;;;5083464;28;20265;-68
2022/06/22 11:19:45;;;;;;;0.45;0.45;;;24.00;74.00;;;;;;5083027;28;20196;-69
2022/06/22 11:22:39;;;;;;;0.40;0.40;;;24.20;71.20;;;;;;5082194;28;20561;-69
2022/06/22 11:32:58;;;;;;;0.50;0.50;;;24.20;72.10;;;;;;5070782;28;20220;-67
2022/06/22 11:36:01;;;;;;;0.50;0.50;;;24.20;70.00;;;;;;5071779;28;20244;-69
2022/06/22 11:39:12;;;;;;;0.40;0.40;;;24.30;68.80;;;;;;5070848;28;20680;-69
2022/06/22 11:42:11;;;;;;;0.40;0.40;;;24.40;70.20;;;;;;5070749;28;20542;-69
2022/06/22 11:48:42;;;;;;;0.63;0.63;;;24.60;67.50;;;;;;5072663;28;20195;-69
2022/06/22 11:52:01;;;;;;;0.63;0.63;;;24.60;67.20;;;;;;5077462;28;20231;-68
2022/06/22 11:55:11;;;;;;;0.40;0.40;;;24.70;68.10;;;;;;5089158;28;20204;-69
2022/06/22 11:58:29;;;;;;;0.70;0.70;;;24.80;66.80;;;;;;5083138;28;20196;-67
2022/06/22 12:01:48;;;;;;;0.50;0.50;;;24.80;66.40;;;;;;5080071;28;20199;-69
2022/06/22 12:05:11;;;;;;;0.40;0.40;;;24.90;65.20;;;;;;5081591;28;20196;-68
2022/06/22 12:08:32;;;;;;;0.52;0.52;;;24.90;67.10;;;;;;5082067;28;20270;-70
2022/06/22 12:11:28;;;;;;;0.40;0.40;;;25.00;66.20;;;;;;5071599;28;20204;-69
2022/06/22 12:17:44;;;;;;;0.40;0.40;;;25.20;65.90;;;;;;5070192;28;20225;-68
2022/06/22 12:20:48;;;;;;;0.40;0.40;;;25.30;66.10;;;;;;5072882;28;20224;-67
2022/06/22 12:23:45;;;;;;;0.40;0.40;;;25.40;64.40;;;;;;5074906;28;20305;-70
2022/06/22 12:26:44;;;;;;;0.40;0.40;;;25.50;66.80;;;;;;5080842;28;20208;-67
2022/06/22 12:30:20;;;;;;;0.50;0.50;;;25.50;63.60;;;;;;5077725;28;20274;-67
2022/06/22 12:33:14;;;;;;;0.40;0.40;;;25.50;63.90;;;;;;5050250;28;20703;-69
2022/06/22 12:36:09;;;;;;;0.40;0.40;;;25.40;62.70;;;;;;5083386;28;20599;-67
2022/06/22 12:39:06;;;;;;;0.40;0.40;;;25.60;62.50;;;;;;5076637;28;20201;-69
2022/06/22 12:42:09;;;;;;;0.65;0.65;;;26.10;61.90;;;;;;5076951;28;20229;-67
2022/06/22 12:45:20;;;;;;;0.40;0.40;;;27.60;59.60;;;;;;5074352;28;20203;-67
2022/06/22 12:48:35;;;;;;;0.43;0.43;;;30.80;57.20;;;;;;5082106;28;20200;-68
2022/06/22 12:51:28;;;;;;;0.40;0.40;;;34.70;54.40;;;;;;5078490;28;20208;-68
2022/06/22 12:54:24;;;;;;;0.40;0.40;;;37.60;47.20;;;;;;5075893;28;20224;-68
2022/06/22 12:57:17;;;;;;;0.68;0.50;;;40.00;43.30;;;;;;5084234;28;20579;-68
2022/06/22 13:00:09;;;;;;;0.45;0.45;;;41.30;37.50;;;;;;5083313;28;20611;-68
2022/06/22 13:02:59;;;;;;;0.50;0.50;;;40.60;36.00;;;;;;5073603;28;20219;-68
2022/06/22 13:05:48;;;;;;;0.68;0.50;;;40.50;35.60;;;;;;5081022;28;20283;-68
2022/06/22 13:08:36;;;;;;;0.40;0.40;;;40.90;34.90;;;;;;5080132;28;20225;-68
2022/06/22 13:11:29;;;;;;;0.50;0.50;;;41.60;34.00;;;;;;5080603;28;20666;-69
2022/06/22 13:14:31;;;;;;;0.40;0.40;;;42.20;32.90;;;;;;5079085;28;20204;-68
2022/06/22 13:17:27;;;;;;;0.60;0.60;;;42.90;32.50;;;;;;5081572;28;20215;-69
2022/06/22 13:20:53;;;;;;;0.50;0.50;;;44.20;30.60;;;;;;5073378;28;20258;-69
2022/06/22 13:23:47;;;;;;;0.50;0.50;;;43.90;29.80;;;;;;5074256;28;20653;-69
2022/06/22 13:26:46;;;;;;;0.52;0.52;;;43.90;29.80;;;;;;5076888;28;20193;-68
2022/06/22 13:29:40;;;;;;;0.50;0.50;;;43.80;30.30;;;;;;5079243;28;20197;-69
2022/06/22 13:32:32;;;;;;;0.50;0.50;;;43.60;30.00;;;;;;5078414;28;20228;-69
2022/06/22 13:35:25;;;;;;;0.80;0.80;;;43.20;29.80;;;;;;5075291;28;20207;-69
2022/06/22 13:38:53;;;;;;;0.50;0.50;;;43.00;29.80;;;;;;5080287;28;20201;-68
2022/06/22 13:41:57;;;;;;;0.50;0.50;;;42.10;29.70;;;;;;5081694;28;20217;-69
2022/06/22 13:45:14;;;;;;;0.85;0.85;;;42.10;30.40;;;;;;5079679;28;20196;-69
2022/06/22 13:48:21;;;;;;;0.50;0.50;;;42.60;29.70;;;;;;5070983;28;20243;-68
2022/06/22 13:51:40;;;;;;;0.50;0.50;;;42.50;30.00;;;;;;5078769;28;20585;-69
2022/06/22 13:54:59;;;;;;;0.50;0.50;;;43.60;30.50;;;;;;5079747;28;20708;-69
2022/06/22 13:57:56;;;;;;;0.50;0.50;;;45.70;30.30;;;;;;5081024;28;20907;-68
2022/06/22 14:00:52;;;;;;;0.50;0.50;;;47.20;28.60;;;;;;5080705;28;20239;-70
2022/06/22 14:03:48;;;;;;;0.50;0.50;;;47.70;28.50;;;;;;5078018;28;20205;-69
2022/06/22 14:06:41;;;;;;;0.60;0.60;;;47.60;27.30;;;;;;5079871;28;20189;-69
2022/06/22 14:09:34;;;;;;;0.60;0.60;;;47.20;27.30;;;;;;5080193;28;20202;-69
2022/06/22 14:12:27;;;;;;;0.80;0.80;;;46.90;27.60;;;;;;5079136;28;20224;-69
2022/06/22 14:15:28;;;;;;;0.60;0.60;;;46.40;28.00;;;;;;5078402;28;20197;-68
2022/06/22 14:18:27;;;;;;;0.60;0.60;;;45.80;28.20;;;;;;5078124;28;20215;-69
2022/06/22 14:21:23;;;;;;;0.60;0.60;;;46.10;28.70;;;;;;5078881;28;20229;-70
2022/06/22 14:24:19;;;;;;;0.60;0.60;;;47.00;28.50;;;;;;5078807;28;20206;-70
2022/06/22 14:27:50;;;;;;;0.65;0.65;;;47.00;28.10;;;;;;5077013;28;20204;-69
2022/06/22 14:30:49;;;;;;;0.50;0.50;;;46.40;27.90;;;;;;5070541;28;20570;-70
2022/06/22 14:33:50;;;;;;;0.60;0.60;;;47.30;28.00;;;;;;5071924;28;20677;-69
2022/06/22 14:36:56;;;;;;;1.50;1.50;;;48.60;27.80;;;;;;5071848;28;20245;-69
2022/06/22 14:39:51;;;;;;;1.00;1.00;;;49.20;26.80;;;;;;5081157;28;20207;-69
2022/06/22 14:42:46;;;;;;;0.60;0.60;;;48.30;26.60;;;;;;5081256;28;20277;-69
2022/06/22 14:45:38;;;;;;;0.60;0.60;;;47.30;27.60;;;;;;5082382;28;20211;-69
2022/06/22 14:48:32;;;;;;;0.60;0.60;;;47.20;28.50;;;;;;5080812;28;20193;-69
2022/06/22 14:51:32;;;;;;;1.45;1.45;;;48.30;28.00;;;;;;5080415;28;20196;-69
2022/06/22 14:54:30;;;;;;;0.55;0.55;;;48.10;26.80;;;;;;5082125;28;20297;-68
2022/06/22 14:57:24;;;;;;;0.50;0.50;;;46.20;27.80;;;;;;5081757;28;20706;-69
2022/06/22 15:00:32;;;;;;;0.60;0.60;;;45.40;28.60;;;;;;5078163;28;20201;-68
2022/06/22 15:03:31;;;;;;;0.50;0.50;;;46.20;28.20;;;;;;5076292;28;20220;-69
2022/06/22 15:06:42;;;;;;;0.50;0.50;;;46.30;27.90;;;;;;5087272;28;20207;-69
2022/06/22 15:09:35;;;;;;;0.63;0.63;;;47.60;27.90;;;;;;5091742;28;20211;-70
2022/06/22 15:15:44;;;;;;;0.80;0.80;;;47.60;27.20;;;;;;5086111;28;20195;-70
2022/06/22 15:18:51;;;;;;;0.60;0.60;;;46.60;27.40;;;;;;5070684;28;20216;-70
2022/06/22 15:21:44;;;;;;;0.60;0.60;;;46.70;28.00;;;;;;5071617;28;20216;-70
2022/06/22 15:25:06;;;;;;;0.60;0.60;;;47.80;27.80;;;;;;5071198;28;20204;-69
2022/06/22 15:28:06;;;;;;;0.70;0.70;;;49.50;28.00;;;;;;5070920;28;20788;-70
2022/06/22 15:31:15;;;;;;;0.70;0.70;;;50.50;27.60;;;;;;5071229;28;20672;-70
2022/06/22 15:34:37;;;;;;;0.80;0.80;;;50.10;27.40;;;;;;5071471;28;20206;-70
2022/06/22 15:37:39;;;;;;;0.70;0.70;;;50.40;27.50;;;;;;5070744;28;20279;-70
2022/06/22 15:40:41;;;;;;;0.80;0.80;;;49.40;27.30;;;;;;5070576;28;20240;-70
2022/06/22 15:43:54;;;;;;;0.70;0.70;;;48.90;27.60;;;;;;5070429;28;20240;-69
2022/06/22 15:46:52;;;;;;;0.68;0.68;;;48.40;28.70;;;;;;5081724;28;20210;-70
2022/06/22 15:50:01;;;;;;;0.90;0.90;;;49.10;28.00;;;;;;5090313;28;20201;-70
2022/06/22 15:52:56;;;;;;;0.70;0.70;;;49.90;27.60;;;;;;5085616;28;20246;-70
2022/06/22 15:55:50;;;;;;;0.80;0.80;;;49.90;27.30;;;;;;5091059;28;20239;-70
2022/06/22 15:58:44;;;;;;;0.80;0.80;;;50.10;27.20;;;;;;5085371;28;20298;-70
2022/06/22 16:01:39;;;;;;;0.60;0.60;;;49.40;27.00;;;;;;5069943;28;20705;-70
2022/06/22 16:04:39;;;;;;;0.60;0.60;;;48.30;27.40;;;;;;5070920;28;20302;-69
2022/06/22 16:07:34;;;;;;;0.73;0.73;;;48.90;27.60;;;;;;5070685;28;20247;-70
2022/06/22 16:10:27;;;;;;;0.80;0.80;;;49.40;27.60;;;;;;5072443;28;20258;-70